sensor_id;sensor_type;location;lat;lon;timestamp;pressure;altitude;pressure_sealevel;temperature;humidity
65800;BME280;52544;48.116;11.660;2024-01-30T00:00:35;96980.47;;;0.08;100.00
65800;BME280;52544;48.116;11.660;2024-01-30T00:03:01;96968.97;;;0.18;100.00
65800;BME280;52544;48.116;11.660;2024-01-30T00:05:26;96980.09;;;0.24;100.00
65800;BME280;52544;48.116;11.660;2024-01-30T00:07:52;96973.56;;;0.07;100.00
65800;BME280;52544;48.116;11.660;2024-01-30T00:10:17;96978.56;;;0.16;100.00
65800;BME280;52544;48.116;11.660;2024-01-30T00:12:42;96977.84;;;0.09;100.00
65800;BME280;52544;48.116;11.660;2024-01-30T00:15:08;96973.66;;;0.02;100.00
65800;BME280;52544;48.116;11.660;2024-01-30T00:17:36;96972.84;;;0.00;100.00
65800;BME280;52544;48.116;11.660;2024-01-30T00:20:02;96981.91;;;0.21;100.00
65800;BME280;52544;48.116;11.660;2024-01-30T00:22:31;96977.75;;;0.12;100.00
65800;BME280;52544;48.116;11.660;2024-01-30T00:24:56;96975.03;;;0.17;100.00
65800;BME280;52544;48.116;11.660;2024-01-30T00:27:22;96977.06;;;0.04;100.00
65800;BME280;52544;48.116;11.660;2024-01-30T00:29:47;96985.72;;;-0.36;100.00
65800;BME280;52544;48.116;11.660;2024-01-30T00:32:12;96986.06;;;-0.53;100.00
65800;BME280;52544;48.116;11.660;2024-01-30T00:34:38;96987.66;;;-0.45;100.00
65800;BME280;52544;48.116;11.660;2024-01-30T00:37:03;96981.50;;;-0.41;100.00
65800;BME280;52544;48.116;11.660;2024-01-30T00:39:29;96984.91;;;-0.39;100.00
65800;BME280;52544;48.116;11.660;2024-01-30T00:41:54;96985.97;;;-0.48;100.00
65800;BME280;52544;48.116;11.660;2024-01-30T00:44:20;96988.28;;;-0.34;100.00
65800;BME280;52544;48.116;11.660;2024-01-30T00:46:45;96977.66;;;-0.23;100.00
65800;BME280;52544;48.116;11.660;2024-01-30T00:49:11;96980.03;;;-0.11;100.00
65800;BME280;52544;48.116;11.660;2024-01-30T00:51:36;96973.56;;;-0.35;100.00
65800;BME280;52544;48.116;11.660;2024-01-30T00:54:02;96977.94;;;-0.81;100.00
65800;BME280;52544;48.116;11.660;2024-01-30T00:56:28;96975.91;;;-0.66;100.00
65800;BME280;52544;48.116;11.660;2024-01-30T00:58:53;96979.75;;;-0.41;100.00
65800;BME280;52544;48.116;11.660;2024-01-30T01:01:19;96982.22;;;-0.35;100.00
65800;BME280;52544;48.116;11.660;2024-01-30T01:03:44;96985.53;;;-0.27;100.00
65800;BME280;52544;48.116;11.660;2024-01-30T01:06:10;96981.22;;;-0.28;100.00
65800;BME280;52544;48.116;11.660;2024-01-30T01:08:36;96987.19;;;-0.22;100.00
65800;BME280;52544;48.116;11.660;2024-01-30T01:11:01;96987.97;;;-0.62;100.00
65800;BME280;52544;48.116;11.660;2024-01-30T01:13:28;96984.25;;;-0.49;100.00
65800;BME280;52544;48.116;11.660;2024-01-30T01:15:54;96988.66;;;-0.53;100.00
65800;BME280;52544;48.116;11.660;2024-01-30T01:18:20;96990.22;;;-0.44;100.00
65800;BME280;52544;48.116;11.660;2024-01-30T01:20:45;96988.38;;;-0.39;100.00
65800;BME280;52544;48.116;11.660;2024-01-30T01:23:11;96985.75;;;-0.37;100.00
65800;BME280;52544;48.116;11.660;2024-01-30T01:25:36;96995.50;;;-0.48;100.00
65800;BME280;52544;48.116;11.660;2024-01-30T01:28:02;96994.78;;;-0.55;100.00
65800;BME280;52544;48.116;11.660;2024-01-30T01:30:28;96989.63;;;-0.58;100.00
65800;BME280;52544;48.116;11.660;2024-01-30T01:32:54;96976.31;;;-0.41;100.00
65800;BME280;52544;48.116;11.660;2024-01-30T01:35:26;96983.25;;;-0.42;100.00
65800;BME280;52544;48.116;11.660;2024-01-30T01:37:52;96988.06;;;-0.68;100.00
65800;BME280;52544;48.116;11.660;2024-01-30T01:40:23;96988.22;;;-0.74;100.00
65800;BME280;52544;48.116;11.660;2024-01-30T01:42:53;96982.16;;;-0.77;100.00
65800;BME280;52544;48.116;11.660;2024-01-30T01:45:19;96981.16;;;-0.68;100.00
65800;BME280;52544;48.116;11.660;2024-01-30T01:47:47;96981.84;;;-0.58;100.00
65800;BME280;52544;48.116;11.660;2024-01-30T01:50:15;96977.34;;;-0.50;100.00
65800;BME280;52544;48.116;11.660;2024-01-30T01:52:44;96981.09;;;-0.65;100.00
65800;BME280;52544;48.116;11.660;2024-01-30T01:55:10;96975.84;;;-0.62;100.00
65800;BME280;52544;48.116;11.660;2024-01-30T01:57:36;96981.16;;;-0.69;100.00
65800;BME280;52544;48.116;11.660;2024-01-30T02:00:02;96985.66;;;-0.78;100.00
65800;BME280;52544;48.116;11.660;2024-01-30T02:02:30;96987.28;;;-0.70;100.00
65800;BME280;52544;48.116;11.660;2024-01-30T02:05:00;96980.13;;;-0.59;100.00
65800;BME280;52544;48.116;11.660;2024-01-30T02:07:25;96976.66;;;-0.60;100.00
65800;BME280;52544;48.116;11.660;2024-01-30T02:09:52;96988.00;;;-0.64;100.00
65800;BME280;52544;48.116;11.660;2024-01-30T02:12:17;96983.59;;;-0.60;100.00
65800;BME280;52544;48.116;11.660;2024-01-30T02:14:49;96987.13;;;-0.64;100.00
65800;BME280;52544;48.116;11.660;2024-01-30T02:17:16;96987.19;;;-0.66;100.00
65800;BME280;52544;48.116;11.660;2024-01-30T02:19:41;96988.03;;;-0.65;100.00
65800;BME280;52544;48.116;11.660;2024-01-30T02:22:07;96987.97;;;-0.62;100.00
65800;BME280;52544;48.116;11.660;2024-01-30T02:24:33;96979.69;;;-0.83;100.00
65800;BME280;52544;48.116;11.660;2024-01-30T02:26:58;96990.84;;;-0.78;100.00
65800;BME280;52544;48.116;11.660;2024-01-30T02:29:24;96986.59;;;-0.82;100.00
65800;BME280;52544;48.116;11.660;2024-01-30T02:31:49;96988.38;;;-0.84;100.00
65800;BME280;52544;48.116;11.660;2024-01-30T02:34:15;96984.75;;;-0.77;100.00
65800;BME280;52544;48.116;11.660;2024-01-30T02:36:43;96987.69;;;-0.93;100.00
65800;BME280;52544;48.116;11.660;2024-01-30T02:39:09;96984.75;;;-0.77;100.00
65800;BME280;52544;48.116;11.660;2024-01-30T02:41:35;96976.97;;;-0.77;100.00
65800;BME280;52544;48.116;11.660;2024-01-30T02:44:01;96985.72;;;-0.81;100.00
65800;BME280;52544;48.116;11.660;2024-01-30T02:46:27;96981.91;;;-1.11;100.00
65800;BME280;52544;48.116;11.660;2024-01-30T02:48:52;96984.00;;;-1.31;100.00
65800;BME280;52544;48.116;11.660;2024-01-30T02:51:18;96983.50;;;-1.02;100.00
65800;BME280;52544;48.116;11.660;2024-01-30T02:53:43;96974.91;;;-1.07;100.00
65800;BME280;52544;48.116;11.660;2024-01-30T02:56:09;96979.00;;;-0.92;100.00
65800;BME280;52544;48.116;11.660;2024-01-30T02:58:39;96973.69;;;-0.85;100.00
65800;BME280;52544;48.116;11.660;2024-01-30T03:01:04;96968.38;;;-0.80;100.00
65800;BME280;52544;48.116;11.660;2024-01-30T03:03:29;96971.13;;;-0.88;100.00
65800;BME280;52544;48.116;11.660;2024-01-30T03:05:55;96965.94;;;-0.88;100.00
65800;BME280;52544;48.116;11.660;2024-01-30T03:08:20;96962.06;;;-1.13;100.00
65800;BME280;52544;48.116;11.660;2024-01-30T03:10:46;96961.66;;;-1.40;100.00
65800;BME280;52544;48.116;11.660;2024-01-30T03:13:11;96965.69;;;-1.23;100.00
65800;BME280;52544;48.116;11.660;2024-01-30T03:15:37;96962.88;;;-1.10;100.00
65800;BME280;52544;48.116;11.660;2024-01-30T03:18:02;96960.94;;;-1.00;100.00
65800;BME280;52544;48.116;11.660;2024-01-30T03:20:29;96958.53;;;-1.09;100.00
65800;BME280;52544;48.116;11.660;2024-01-30T03:22:55;96959.91;;;-1.41;100.00
65800;BME280;52544;48.116;11.660;2024-01-30T03:25:21;96953.56;;;-1.24;100.00
65800;BME280;52544;48.116;11.660;2024-01-30T03:27:46;96953.56;;;-1.24;100.00
65800;BME280;52544;48.116;11.660;2024-01-30T03:30:11;96957.84;;;-1.20;100.00
65800;BME280;52544;48.116;11.660;2024-01-30T03:32:37;96945.91;;;-1.31;100.00
65800;BME280;52544;48.116;11.660;2024-01-30T03:35:02;96956.13;;;-1.21;100.00
65800;BME280;52544;48.116;11.660;2024-01-30T03:37:28;96956.84;;;-1.13;100.00
65800;BME280;52544;48.116;11.660;2024-01-30T03:39:53;96959.63;;;-1.24;100.00
65800;BME280;52544;48.116;11.660;2024-01-30T03:42:18;96958.78;;;-1.23;100.00
65800;BME280;52544;48.116;11.660;2024-01-30T03:44:44;96950.91;;;-1.20;100.00
65800;BME280;52544;48.116;11.660;2024-01-30T03:47:09;96947.47;;;-1.22;100.00
65800;BME280;52544;48.116;11.660;2024-01-30T03:49:35;96956.81;;;-1.61;100.00
65800;BME280;52544;48.116;11.660;2024-01-30T03:52:00;96954.78;;;-1.44;100.00
65800;BME280;52544;48.116;11.660;2024-01-30T03:54:25;96951.03;;;-1.28;100.00
65800;BME280;52544;48.116;11.660;2024-01-30T03:56:51;96956.94;;;-1.19;100.00
65800;BME280;52544;48.116;11.660;2024-01-30T03:59:16;96955.03;;;-1.08;100.00
65800;BME280;52544;48.116;11.660;2024-01-30T04:01:47;96957.63;;;-1.08;100.00
65800;BME280;52544;48.116;11.660;2024-01-30T04:04:12;96947.19;;;-1.05;100.00
65800;BME280;52544;48.116;11.660;2024-01-30T04:06:38;96952.75;;;-1.27;100.00
65800;BME280;52544;48.116;11.660;2024-01-30T04:09:03;96952.94;;;-1.37;100.00
65800;BME280;52544;48.116;11.660;2024-01-30T04:11:29;96954.72;;;-1.41;100.00
65800;BME280;52544;48.116;11.660;2024-01-30T04:13:54;96952.59;;;-1.17;100.00
65800;BME280;52544;48.116;11.660;2024-01-30T04:16:22;96949.03;;;-1.12;100.00
65800;BME280;52544;48.116;11.660;2024-01-30T04:18:48;96962.94;;;-1.14;100.00
65800;BME280;52544;48.116;11.660;2024-01-30T04:21:14;96955.97;;;-1.12;100.00
65800;BME280;52544;48.116;11.660;2024-01-30T04:23:40;96949.91;;;-1.13;100.00
65800;BME280;52544;48.116;11.660;2024-01-30T04:26:06;96955.91;;;-1.09;100.00
65800;BME280;52544;48.116;11.660;2024-01-30T04:28:31;96952.44;;;-1.08;100.00
65800;BME280;52544;48.116;11.660;2024-01-30T04:30:57;96950.78;;;-1.12;100.00
65800;BME280;52544;48.116;11.660;2024-01-30T04:33:22;96949.06;;;-1.13;100.00
65800;BME280;52544;48.116;11.660;2024-01-30T04:35:48;96943.22;;;-1.28;100.00
65800;BME280;52544;48.116;11.660;2024-01-30T04:38:13;96952.81;;;-1.30;100.00
65800;BME280;52544;48.116;11.660;2024-01-30T04:40:40;96947.50;;;-1.23;100.00
65800;BME280;52544;48.116;11.660;2024-01-30T04:43:05;96950.81;;;-1.15;100.00
65800;BME280;52544;48.116;11.660;2024-01-30T04:45:31;96960.31;;;-1.13;100.00
65800;BME280;52544;48.116;11.660;2024-01-30T04:47:56;96953.56;;;-1.23;100.00
65800;BME280;52544;48.116;11.660;2024-01-30T04:50:22;96951.09;;;-1.31;100.00
65800;BME280;52544;48.116;11.660;2024-01-30T04:52:47;96943.34;;;-1.34;100.00
65800;BME280;52544;48.116;11.660;2024-01-30T04:55:13;96947.50;;;-1.23;100.00
65800;BME280;52544;48.116;11.660;2024-01-30T04:57:38;96955.25;;;-1.20;100.00
65800;BME280;52544;48.116;11.660;2024-01-30T05:00:04;96952.56;;;-1.14;100.00
65800;BME280;52544;48.116;11.660;2024-01-30T05:02:30;96951.75;;;-1.18;100.00
65800;BME280;52544;48.116;11.660;2024-01-30T05:04:56;96961.13;;;-1.09;100.00
65800;BME280;52544;48.116;11.660;2024-01-30T05:07:21;96952.44;;;-1.08;100.00
65800;BME280;52544;48.116;11.660;2024-01-30T05:09:47;96963.97;;;-1.24;100.00
65800;BME280;52544;48.116;11.660;2024-01-30T05:12:12;96959.63;;;-1.22;100.00
65800;BME280;52544;48.116;11.660;2024-01-30T05:14:37;96959.53;;;-1.19;100.00
65800;BME280;52544;48.116;11.660;2024-01-30T05:17:03;96967.69;;;-1.41;100.00
65800;BME280;52544;48.116;11.660;2024-01-30T05:19:28;96970.72;;;-1.65;100.00
65800;BME280;52544;48.116;11.660;2024-01-30T05:21:54;96961.78;;;-1.49;100.00
65800;BME280;52544;48.116;11.660;2024-01-30T05:24:19;96956.47;;;-1.41;100.00
65800;BME280;52544;48.116;11.660;2024-01-30T05:26:45;96961.53;;;-1.34;100.00
65800;BME280;52544;48.116;11.660;2024-01-30T05:29:10;96963.06;;;-1.22;100.00
65800;BME280;52544;48.116;11.660;2024-01-30T05:31:36;96961.38;;;-1.24;100.00
65800;BME280;52544;48.116;11.660;2024-01-30T05:34:01;96957.88;;;-1.23;100.00
65800;BME280;52544;48.116;11.660;2024-01-30T05:36:27;96964.13;;;-1.34;100.00
65800;BME280;52544;48.116;11.660;2024-01-30T05:38:52;96961.56;;;-1.37;100.00
65800;BME280;52544;48.116;11.660;2024-01-30T05:41:18;96972.59;;;-1.22;100.00
65800;BME280;52544;48.116;11.660;2024-01-30T05:43:44;96967.53;;;-1.30;100.00
65800;BME280;52544;48.116;11.660;2024-01-30T05:46:09;96970.06;;;-1.26;100.00
65800;BME280;52544;48.116;11.660;2024-01-30T05:48:34;96962.22;;;-1.24;100.00
65800;BME280;52544;48.116;11.660;2024-01-30T05:51:01;96976.19;;;-1.30;100.00
65800;BME280;52544;48.116;11.660;2024-01-30T05:53:27;96973.63;;;-1.31;100.00
65800;BME280;52544;48.116;11.660;2024-01-30T05:55:52;96970.88;;;-1.23;100.00
65800;BME280;52544;48.116;11.660;2024-01-30T05:58:17;96978.66;;;-1.23;100.00
65800;BME280;52544;48.116;11.660;2024-01-30T06:00:43;96974.41;;;-1.26;100.00
65800;BME280;52544;48.116;11.660;2024-01-30T06:03:08;96979.81;;;-1.41;100.00
65800;BME280;52544;48.116;11.660;2024-01-30T06:05:34;96985.09;;;-1.46;100.00
65800;BME280;52544;48.116;11.660;2024-01-30T06:07:59;96986.88;;;-1.48;100.00
65800;BME280;52544;48.116;11.660;2024-01-30T06:10:25;96986.09;;;-1.55;100.00
65800;BME280;52544;48.116;11.660;2024-01-30T06:12:50;96984.31;;;-1.51;100.00
65800;BME280;52544;48.116;11.660;2024-01-30T06:15:16;96986.81;;;-1.45;100.00
65800;BME280;52544;48.116;11.660;2024-01-30T06:17:41;96989.41;;;-1.45;100.00
65800;BME280;52544;48.116;11.660;2024-01-30T06:20:07;96996.53;;;-1.56;100.00
65800;BME280;52544;48.116;11.660;2024-01-30T06:22:32;96986.84;;;-1.46;100.00
65800;BME280;52544;48.116;11.660;2024-01-30T06:24:58;96991.16;;;-1.44;100.00
65800;BME280;52544;48.116;11.660;2024-01-30T06:27:23;96986.94;;;-1.53;100.00
65800;BME280;52544;48.116;11.660;2024-01-30T06:29:48;96990.38;;;-1.51;100.00
65800;BME280;52544;48.116;11.660;2024-01-30T06:32:14;96990.63;;;-1.67;100.00
65800;BME280;52544;48.116;11.660;2024-01-30T06:34:40;96991.34;;;-1.56;100.00
65800;BME280;52544;48.116;11.660;2024-01-30T06:37:06;96990.41;;;-1.52;100.00
65800;BME280;52544;48.116;11.660;2024-01-30T06:39:31;96997.19;;;-1.45;100.00
65800;BME280;52544;48.116;11.660;2024-01-30T06:41:57;96990.22;;;-1.41;100.00
65800;BME280;52544;48.116;11.660;2024-01-30T06:44:22;96989.28;;;-1.36;100.00
65800;BME280;52544;48.116;11.660;2024-01-30T06:46:47;96985.84;;;-1.38;100.00
65800;BME280;52544;48.116;11.660;2024-01-30T06:49:13;96992.19;;;-1.56;100.00
65800;BME280;52544;48.116;11.660;2024-01-30T06:51:39;96995.88;;;-1.72;100.00
65800;BME280;52544;48.116;11.660;2024-01-30T06:54:04;97008.44;;;-2.05;100.00
65800;BME280;52544;48.116;11.660;2024-01-30T06:56:30;97004.81;;;-1.91;100.00
65800;BME280;52544;48.116;11.660;2024-01-30T06:58:55;97010.97;;;-2.00;100.00
65800;BME280;52544;48.116;11.660;2024-01-30T07:01:20;97014.34;;;-1.93;100.00
65800;BME280;52544;48.116;11.660;2024-01-30T07:03:46;97014.16;;;-1.78;100.00
65800;BME280;52544;48.116;11.660;2024-01-30T07:06:11;97012.31;;;-1.71;100.00
65800;BME280;52544;48.116;11.660;2024-01-30T07:08:37;97011.28;;;-1.60;100.00
65800;BME280;52544;48.116;11.660;2024-01-30T07:11:05;97013.75;;;-1.51;100.00
65800;BME280;52544;48.116;11.660;2024-01-30T07:13:31;97013.63;;;-1.43;100.00
65800;BME280;52544;48.116;11.660;2024-01-30T07:15:57;97010.09;;;-1.39;100.00
65800;BME280;52544;48.116;11.660;2024-01-30T07:18:22;97014.09;;;-1.19;100.00
65800;BME280;52544;48.116;11.660;2024-01-30T07:20:47;97013.97;;;-1.10;100.00
65800;BME280;52544;48.116;11.660;2024-01-30T07:23:15;97013.00;;;-1.05;100.00
65800;BME280;52544;48.116;11.660;2024-01-30T07:25:43;97018.94;;;-0.98;100.00
65800;BME280;52544;48.116;11.660;2024-01-30T07:28:08;97016.13;;;-0.86;100.00
65800;BME280;52544;48.116;11.660;2024-01-30T07:30:35;97021.03;;;-0.67;100.00
65800;BME280;52544;48.116;11.660;2024-01-30T07:33:00;97019.16;;;-0.61;100.00
65800;BME280;52544;48.116;11.660;2024-01-30T07:35:26;97020.78;;;-0.55;100.00
65800;BME280;52544;48.116;11.660;2024-01-30T07:37:51;97019.16;;;-0.16;100.00
65800;BME280;52544;48.116;11.660;2024-01-30T07:40:17;97019.00;;;-0.10;100.00
65800;BME280;52544;48.116;11.660;2024-01-30T07:42:42;97020.09;;;-0.21;100.00
65800;BME280;52544;48.116;11.660;2024-01-30T07:45:08;97023.59;;;-0.22;100.00
65800;BME280;52544;48.116;11.660;2024-01-30T07:47:34;97020.81;;;-0.12;100.00
65800;BME280;52544;48.116;11.660;2024-01-30T07:49:59;97025.31;;;-0.21;100.00
65800;BME280;52544;48.116;11.660;2024-01-30T07:52:25;97014.91;;;-0.21;100.00
65800;BME280;52544;48.116;11.660;2024-01-30T07:54:51;97018.28;;;-0.16;100.00
65800;BME280;52544;48.116;11.660;2024-01-30T07:57:17;97021.59;;;-0.08;100.00
65800;BME280;52544;48.116;11.660;2024-01-30T07:59:46;97022.31;;;0.00;100.00
65800;BME280;52544;48.116;11.660;2024-01-30T08:02:12;97027.22;;;0.14;100.00
65800;BME280;52544;48.116;11.660;2024-01-30T08:04:38;97018.19;;;0.30;100.00
65800;BME280;52544;48.116;11.660;2024-01-30T08:07:04;97016.16;;;0.43;100.00
65800;BME280;52544;48.116;11.660;2024-01-30T08:09:29;97019.34;;;0.54;100.00
65800;BME280;52544;48.116;11.660;2024-01-30T08:11:54;97024.84;;;0.79;100.00
65800;BME280;52544;48.116;11.660;2024-01-30T08:14:20;97019.97;;;1.01;100.00
65800;BME280;52544;48.116;11.660;2024-01-30T08:16:45;97020.28;;;1.23;100.00
65800;BME280;52544;48.116;11.660;2024-01-30T08:19:11;97026.38;;;1.56;100.00
65800;BME280;52544;48.116;11.660;2024-01-30T08:21:36;97027.59;;;1.75;100.00
65800;BME280;52544;48.116;11.660;2024-01-30T08:24:03;97024.03;;;2.09;100.00
65800;BME280;52544;48.116;11.660;2024-01-30T08:26:30;97019.28;;;2.52;100.00
65800;BME280;52544;48.116;11.660;2024-01-30T08:28:56;97018.59;;;2.73;100.00
65800;BME280;52544;48.116;11.660;2024-01-30T08:31:21;97019.84;;;3.14;100.00
65800;BME280;52544;48.116;11.660;2024-01-30T08:33:46;97028.03;;;3.32;100.00
65800;BME280;52544;48.116;11.660;2024-01-30T08:36:12;97015.09;;;3.52;100.00
65800;BME280;52544;48.116;11.660;2024-01-30T08:38:37;97016.41;;;3.89;100.00
65800;BME280;52544;48.116;11.660;2024-01-30T08:41:03;97014.34;;;4.20;100.00
65800;BME280;52544;48.116;11.660;2024-01-30T08:43:28;97010.88;;;4.43;100.00
65800;BME280;52544;48.116;11.660;2024-01-30T08:45:54;97012.97;;;4.57;100.00
65800;BME280;52544;48.116;11.660;2024-01-30T08:48:19;97007.13;;;4.72;97.59
65800;BME280;52544;48.116;11.660;2024-01-30T08:50:44;97012.00;;;5.04;88.91
65800;BME280;52544;48.116;11.660;2024-01-30T08:53:10;97018.03;;;5.48;80.29
65800;BME280;52544;48.116;11.660;2024-01-30T08:55:35;97018.28;;;5.62;78.12
65800;BME280;52544;48.116;11.660;2024-01-30T08:58:01;97008.88;;;5.77;81.12
65800;BME280;52544;48.116;11.660;2024-01-30T09:00:29;97010.25;;;6.06;82.27
65800;BME280;52544;48.116;11.660;2024-01-30T09:02:54;97015.25;;;6.31;80.87
65800;BME280;52544;48.116;11.660;2024-01-30T09:05:19;97014.00;;;6.59;79.10
65800;BME280;52544;48.116;11.660;2024-01-30T09:07:45;97022.63;;;6.80;78.52
65800;BME280;52544;48.116;11.660;2024-01-30T09:10:11;97018.16;;;7.18;74.84
65800;BME280;52544;48.116;11.660;2024-01-30T09:12:36;97019.44;;;7.09;75.80
65800;BME280;52544;48.116;11.660;2024-01-30T09:15:01;97019.16;;;7.15;73.16
65800;BME280;52544;48.116;11.660;2024-01-30T09:17:27;97018.00;;;7.38;73.84
65800;BME280;52544;48.116;11.660;2024-01-30T09:19:52;97021.50;;;7.91;71.32
65800;BME280;52544;48.116;11.660;2024-01-30T09:22:18;97023.94;;;7.94;66.83
65800;BME280;52544;48.116;11.660;2024-01-30T09:24:43;97027.25;;;8.15;67.63
65800;BME280;52544;48.116;11.660;2024-01-30T09:27:09;97019.88;;;8.39;61.38
65800;BME280;52544;48.116;11.660;2024-01-30T09:29:35;97022.78;;;8.66;63.22
65800;BME280;52544;48.116;11.660;2024-01-30T09:32:01;97025.66;;;8.45;60.06
65800;BME280;52544;48.116;11.660;2024-01-30T09:34:27;97028.13;;;8.96;61.53
65800;BME280;52544;48.116;11.660;2024-01-30T09:36:52;97022.69;;;8.99;59.62
65800;BME280;52544;48.116;11.660;2024-01-30T09:39:17;97030.88;;;9.10;58.83
65800;BME280;52544;48.116;11.660;2024-01-30T09:41:49;97031.22;;;9.80;56.82
65800;BME280;52544;48.116;11.660;2024-01-30T09:44:16;97026.25;;;10.04;56.05
65800;BME280;52544;48.116;11.660;2024-01-30T09:46:42;97027.63;;;10.25;56.47
65800;BME280;52544;48.116;11.660;2024-01-30T09:49:08;97028.22;;;10.45;55.31
65800;BME280;52544;48.116;11.660;2024-01-30T09:51:34;97030.78;;;10.02;56.88
65800;BME280;52544;48.116;11.660;2024-01-30T09:54:02;97029.91;;;10.46;55.98
65800;BME280;52544;48.116;11.660;2024-01-30T09:56:28;97027.75;;;10.94;51.85
65800;BME280;52544;48.116;11.660;2024-01-30T09:58:54;97032.13;;;11.22;51.01
65800;BME280;52544;48.116;11.660;2024-01-30T10:01:19;97032.53;;;11.43;49.63
65800;BME280;52544;48.116;11.660;2024-01-30T10:03:45;97026.50;;;11.93;47.57
65800;BME280;52544;48.116;11.660;2024-01-30T10:06:11;97017.63;;;11.67;46.97
65800;BME280;52544;48.116;11.660;2024-01-30T10:08:37;97018.97;;;12.00;48.31
65800;BME280;52544;48.116;11.660;2024-01-30T10:11:03;97018.78;;;12.16;48.86
65800;BME280;52544;48.116;11.660;2024-01-30T10:13:28;97017.94;;;12.15;49.62
65800;BME280;52544;48.116;11.660;2024-01-30T10:15:54;97017.94;;;12.15;48.21
65800;BME280;52544;48.116;11.660;2024-01-30T10:18:20;97014.31;;;12.16;50.75
65800;BME280;52544;48.116;11.660;2024-01-30T10:20:45;97005.41;;;12.17;49.99
65800;BME280;52544;48.116;11.660;2024-01-30T10:23:11;97005.94;;;12.85;47.25
65800;BME280;52544;48.116;11.660;2024-01-30T10:25:37;97003.03;;;12.51;47.58
65800;BME280;52544;48.116;11.660;2024-01-30T10:28:03;97007.22;;;12.92;45.86
65800;BME280;52544;48.116;11.660;2024-01-30T10:30:28;97001.94;;;13.40;43.43
65800;BME280;52544;48.116;11.660;2024-01-30T10:32:54;97003.34;;;13.33;45.51
65800;BME280;52544;48.116;11.660;2024-01-30T10:35:19;96999.22;;;13.29;45.24
65800;BME280;52544;48.116;11.660;2024-01-30T10:37:47;96997.75;;;13.48;44.89
65800;BME280;52544;48.116;11.660;2024-01-30T10:40:13;96991.00;;;13.91;42.75
65800;BME280;52544;48.116;11.660;2024-01-30T10:42:43;96978.78;;;13.53;45.70
65800;BME280;52544;48.116;11.660;2024-01-30T10:45:10;96981.16;;;13.69;42.82
65800;BME280;52544;48.116;11.660;2024-01-30T10:47:44;96976.50;;;13.95;43.92
65800;BME280;52544;48.116;11.660;2024-01-30T10:50:13;96970.56;;;13.91;44.59
65800;BME280;52544;48.116;11.660;2024-01-30T10:52:42;96970.34;;;13.59;43.71
65800;BME280;52544;48.116;11.660;2024-01-30T10:55:08;96966.19;;;13.44;45.28
65800;BME280;52544;48.116;11.660;2024-01-30T10:57:34;96979.84;;;12.79;43.86
65800;BME280;52544;48.116;11.660;2024-01-30T11:00:11;96967.19;;;12.33;45.88
65800;BME280;52544;48.116;11.660;2024-01-30T11:02:40;96962.38;;;12.38;46.68
65800;BME280;52544;48.116;11.660;2024-01-30T11:05:05;96963.97;;;12.53;45.21
65800;BME280;52544;48.116;11.660;2024-01-30T11:07:31;96962.91;;;12.43;47.62
65800;BME280;52544;48.116;11.660;2024-01-30T11:10:00;96960.31;;;12.67;47.64
65800;BME280;52544;48.116;11.660;2024-01-30T11:12:27;96958.81;;;12.75;46.19
65800;BME280;52544;48.116;11.660;2024-01-30T11:15:15;96949.41;;;12.83;46.56
65800;BME280;52544;48.116;11.660;2024-01-30T11:20:32;96954.03;;;13.05;44.21
65800;BME280;52544;48.116;11.660;2024-01-30T11:22:57;96941.06;;;13.48;44.84
65800;BME280;52544;48.116;11.660;2024-01-30T11:25:23;96936.81;;;13.45;43.27
65800;BME280;52544;48.116;11.660;2024-01-30T11:27:50;96935.19;;;13.32;42.65
65800;BME280;52544;48.116;11.660;2024-01-30T11:33:04;96931.69;;;13.89;40.04
65800;BME280;52544;48.116;11.660;2024-01-30T11:35:35;96932.16;;;13.71;40.57
65800;BME280;52544;48.116;11.660;2024-01-30T11:38:01;96932.09;;;13.49;41.79
65800;BME280;52544;48.116;11.660;2024-01-30T11:40:28;96932.25;;;13.47;41.52
65800;BME280;52544;48.116;11.660;2024-01-30T11:42:55;96922.13;;;13.29;43.22
65800;BME280;52544;48.116;11.660;2024-01-30T11:45:21;96925.19;;;13.46;44.14
65800;BME280;52544;48.116;11.660;2024-01-30T11:47:46;96927.53;;;13.62;42.81
65800;BME280;52544;48.116;11.660;2024-01-30T11:50:12;96921.97;;;13.54;40.38
65800;BME280;52544;48.116;11.660;2024-01-30T11:52:38;96925.63;;;13.64;41.45
65800;BME280;52544;48.116;11.660;2024-01-30T11:55:04;96916.97;;;13.96;39.74
65800;BME280;52544;48.116;11.660;2024-01-30T11:57:29;96912.09;;;13.79;42.35
65800;BME280;52544;48.116;11.660;2024-01-30T11:59:55;96907.63;;;13.79;42.64
65800;BME280;52544;48.116;11.660;2024-01-30T12:02:20;96908.22;;;13.71;41.88
65800;BME280;52544;48.116;11.660;2024-01-30T12:04:46;96916.06;;;13.62;42.16
65800;BME280;52544;48.116;11.660;2024-01-30T12:07:11;96914.03;;;13.65;43.34
65800;BME280;52544;48.116;11.660;2024-01-30T12:09:38;96907.09;;;13.52;40.76
65800;BME280;52544;48.116;11.660;2024-01-30T12:12:03;96906.97;;;13.53;41.82
65800;BME280;52544;48.116;11.660;2024-01-30T12:14:31;96901.34;;;13.34;41.56
65800;BME280;52544;48.116;11.660;2024-01-30T12:16:56;96904.31;;;12.94;42.63
65800;BME280;52544;48.116;11.660;2024-01-30T12:19:25;96898.31;;;13.03;40.68
65800;BME280;52544;48.116;11.660;2024-01-30T12:21:57;96904.88;;;12.86;41.21
65800;BME280;52544;48.116;11.660;2024-01-30T12:24:25;96903.66;;;12.79;41.20
65800;BME280;52544;48.116;11.660;2024-01-30T12:26:50;96903.47;;;12.93;39.99
65800;BME280;52544;48.116;11.660;2024-01-30T12:29:17;96891.72;;;13.09;39.32
65800;BME280;52544;48.116;11.660;2024-01-30T12:31:42;96891.72;;;13.44;40.64
65800;BME280;52544;48.116;11.660;2024-01-30T12:34:09;96890.09;;;13.88;40.07
65800;BME280;52544;48.116;11.660;2024-01-30T12:36:34;96894.34;;;13.90;39.41
65800;BME280;52544;48.116;11.660;2024-01-30T12:39:01;96878.72;;;14.31;38.00
65800;BME280;52544;48.116;11.660;2024-01-30T12:41:26;96872.66;;;14.40;38.57
65800;BME280;52544;48.116;11.660;2024-01-30T12:43:57;96873.25;;;14.43;38.91